sensor_id;sensor_type;location;lat;lon;timestamp;temperature;humidity
11666;DHT22;5889;51.350;6.708;2022-08-04T00:00:15;26.20;81.80
11666;DHT22;5889;51.350;6.708;2022-08-04T00:02:55;26.10;81.70
11666;DHT22;5889;51.350;6.708;2022-08-04T00:05:29;26.10;81.60
11666;DHT22;5889;51.350;6.708;2022-08-04T00:08:08;26.10;81.40
11666;DHT22;5889;51.350;6.708;2022-08-04T00:10:39;26.10;81.50
11666;DHT22;5889;51.350;6.708;2022-08-04T00:13:08;26.00;81.40
11666;DHT22;5889;51.350;6.708;2022-08-04T00:15:36;26.00;81.40
11666;DHT22;5889;51.350;6.708;2022-08-04T00:18:06;26.00;81.50
11666;DHT22;5889;51.350;6.708;2022-08-04T00:20:37;26.00;81.70
11666;DHT22;5889;51.350;6.708;2022-08-04T00:23:05;26.00;81.90
11666;DHT22;5889;51.350;6.708;2022-08-04T00:25:33;25.90;81.80
11666;DHT22;5889;51.350;6.708;2022-08-04T00:28:00;25.90;82.00
11666;DHT22;5889;51.350;6.708;2022-08-04T00:30:27;25.90;82.20
11666;DHT22;5889;51.350;6.708;2022-08-04T00:32:56;25.90;82.30
11666;DHT22;5889;51.350;6.708;2022-08-04T00:35:23;25.80;82.40
11666;DHT22;5889;51.350;6.708;2022-08-04T00:37:52;25.80;82.40
11666;DHT22;5889;51.350;6.708;2022-08-04T00:40:30;25.80;82.40
11666;DHT22;5889;51.350;6.708;2022-08-04T00:43:07;25.80;82.60
11666;DHT22;5889;51.350;6.708;2022-08-04T00:45:51;25.70;82.70
11666;DHT22;5889;51.350;6.708;2022-08-04T00:48:32;25.70;83.00
11666;DHT22;5889;51.350;6.708;2022-08-04T00:51:12;25.60;83.00
11666;DHT22;5889;51.350;6.708;2022-08-04T00:53:54;25.60;83.10
11666;DHT22;5889;51.350;6.708;2022-08-04T00:56:44;25.60;83.10
11666;DHT22;5889;51.350;6.708;2022-08-04T00:59:23;25.60;83.20
11666;DHT22;5889;51.350;6.708;2022-08-04T01:01:59;25.60;83.20
11666;DHT22;5889;51.350;6.708;2022-08-04T01:04:39;25.50;83.30
11666;DHT22;5889;51.350;6.708;2022-08-04T01:10:09;25.50;83.40
11666;DHT22;5889;51.350;6.708;2022-08-04T01:15:39;25.40;83.30
11666;DHT22;5889;51.350;6.708;2022-08-04T01:18:19;25.40;83.00
11666;DHT22;5889;51.350;6.708;2022-08-04T01:20:58;25.40;83.40
11666;DHT22;5889;51.350;6.708;2022-08-04T01:23:52;25.40;83.30
11666;DHT22;5889;51.350;6.708;2022-08-04T01:29:14;25.40;83.40
11666;DHT22;5889;51.350;6.708;2022-08-04T01:31:51;25.40;83.50
11666;DHT22;5889;51.350;6.708;2022-08-04T01:34:21;25.40;83.60
11666;DHT22;5889;51.350;6.708;2022-08-04T01:36:58;25.30;83.60
11666;DHT22;5889;51.350;6.708;2022-08-04T01:39:33;25.30;83.70
11666;DHT22;5889;51.350;6.708;2022-08-04T01:42:07;25.30;83.80
11666;DHT22;5889;51.350;6.708;2022-08-04T01:44:38;25.30;83.90
11666;DHT22;5889;51.350;6.708;2022-08-04T01:47:07;25.30;83.90
11666;DHT22;5889;51.350;6.708;2022-08-04T01:49:37;25.30;83.80
11666;DHT22;5889;51.350;6.708;2022-08-04T01:52:07;25.30;83.80
11666;DHT22;5889;51.350;6.708;2022-08-04T01:54:37;25.30;83.80
11666;DHT22;5889;51.350;6.708;2022-08-04T01:57:06;25.30;83.80
11666;DHT22;5889;51.350;6.708;2022-08-04T01:59:34;25.30;83.80
11666;DHT22;5889;51.350;6.708;2022-08-04T02:02:04;25.20;83.80
11666;DHT22;5889;51.350;6.708;2022-08-04T02:04:31;25.20;83.90
11666;DHT22;5889;51.350;6.708;2022-08-04T02:07:08;25.30;83.90
11666;DHT22;5889;51.350;6.708;2022-08-04T02:09:41;25.20;83.80
11666;DHT22;5889;51.350;6.708;2022-08-04T02:12:17;25.30;83.80
11666;DHT22;5889;51.350;6.708;2022-08-04T02:14:55;25.30;83.50
11666;DHT22;5889;51.350;6.708;2022-08-04T02:17:28;25.30;83.40
11666;DHT22;5889;51.350;6.708;2022-08-04T02:20:07;25.30;83.40
11666;DHT22;5889;51.350;6.708;2022-08-04T02:22:39;25.30;83.20
11666;DHT22;5889;51.350;6.708;2022-08-04T02:25:08;25.30;83.20
11666;DHT22;5889;51.350;6.708;2022-08-04T02:27:54;25.30;83.00
11666;DHT22;5889;51.350;6.708;2022-08-04T02:30:26;25.30;83.00
11666;DHT22;5889;51.350;6.708;2022-08-04T02:33:01;25.30;83.10
11666;DHT22;5889;51.350;6.708;2022-08-04T02:35:33;25.30;83.20
11666;DHT22;5889;51.350;6.708;2022-08-04T02:38:10;25.20;83.30
11666;DHT22;5889;51.350;6.708;2022-08-04T02:40:38;25.20;83.60
11666;DHT22;5889;51.350;6.708;2022-08-04T02:43:07;25.20;83.70
11666;DHT22;5889;51.350;6.708;2022-08-04T02:45:35;25.20;83.80
11666;DHT22;5889;51.350;6.708;2022-08-04T02:48:04;25.10;83.90
11666;DHT22;5889;51.350;6.708;2022-08-04T02:50:35;25.10;84.10
11666;DHT22;5889;51.350;6.708;2022-08-04T02:53:03;25.00;84.10
11666;DHT22;5889;51.350;6.708;2022-08-04T02:55:33;25.00;84.30
11666;DHT22;5889;51.350;6.708;2022-08-04T02:58:02;25.00;84.50
11666;DHT22;5889;51.350;6.708;2022-08-04T03:00:30;24.90;84.70
11666;DHT22;5889;51.350;6.708;2022-08-04T03:03:12;24.80;84.90
11666;DHT22;5889;51.350;6.708;2022-08-04T03:05:52;24.60;85.10
11666;DHT22;5889;51.350;6.708;2022-08-04T03:08:41;24.40;85.80
11666;DHT22;5889;51.350;6.708;2022-08-04T03:11:28;24.20;86.40
11666;DHT22;5889;51.350;6.708;2022-08-04T03:14:35;24.00;87.60
11666;DHT22;5889;51.350;6.708;2022-08-04T03:26:50;24.00;88.20
11666;DHT22;5889;51.350;6.708;2022-08-04T03:35:57;24.10;87.90
11666;DHT22;5889;51.350;6.708;2022-08-04T03:38:50;24.10;88.00
11666;DHT22;5889;51.350;6.708;2022-08-04T03:44:39;23.90;88.50
11666;DHT22;5889;51.350;6.708;2022-08-04T03:47:31;23.90;88.70
11666;DHT22;5889;51.350;6.708;2022-08-04T03:53:43;23.90;89.00
11666;DHT22;5889;51.350;6.708;2022-08-04T03:59:34;23.90;89.10
11666;DHT22;5889;51.350;6.708;2022-08-04T04:02:56;23.90;89.20
11666;DHT22;5889;51.350;6.708;2022-08-04T04:11:50;23.80;89.50
11666;DHT22;5889;51.350;6.708;2022-08-04T04:14:47;23.80;89.70
11666;DHT22;5889;51.350;6.708;2022-08-04T04:17:34;23.80;89.80
11666;DHT22;5889;51.350;6.708;2022-08-04T04:20:35;23.70;90.00
11666;DHT22;5889;51.350;6.708;2022-08-04T04:23:21;23.70;90.00
11666;DHT22;5889;51.350;6.708;2022-08-04T04:26:06;23.70;90.10
11666;DHT22;5889;51.350;6.708;2022-08-04T04:28:53;23.70;90.20
11666;DHT22;5889;51.350;6.708;2022-08-04T04:31:46;23.80;90.20
11666;DHT22;5889;51.350;6.708;2022-08-04T04:34:25;23.80;90.20
11666;DHT22;5889;51.350;6.708;2022-08-04T04:37:07;23.80;90.20
11666;DHT22;5889;51.350;6.708;2022-08-04T04:39:50;23.90;90.20
11666;DHT22;5889;51.350;6.708;2022-08-04T04:42:31;23.90;90.20
11666;DHT22;5889;51.350;6.708;2022-08-04T04:45:20;24.00;90.20
11666;DHT22;5889;51.350;6.708;2022-08-04T04:47:57;24.00;90.20
11666;DHT22;5889;51.350;6.708;2022-08-04T04:50:34;24.00;90.20
11666;DHT22;5889;51.350;6.708;2022-08-04T04:53:09;24.00;90.20
11666;DHT22;5889;51.350;6.708;2022-08-04T04:55:41;24.00;90.30
11666;DHT22;5889;51.350;6.708;2022-08-04T04:58:13;24.00;90.40
11666;DHT22;5889;51.350;6.708;2022-08-04T05:00:53;24.10;90.40
11666;DHT22;5889;51.350;6.708;2022-08-04T05:03:47;24.10;90.40
11666;DHT22;5889;51.350;6.708;2022-08-04T05:06:34;24.10;90.40
11666;DHT22;5889;51.350;6.708;2022-08-04T05:09:15;24.20;90.40
11666;DHT22;5889;51.350;6.708;2022-08-04T05:12:02;24.20;90.50
11666;DHT22;5889;51.350;6.708;2022-08-04T05:14:40;24.20;90.50
11666;DHT22;5889;51.350;6.708;2022-08-04T05:17:17;24.30;90.60
11666;DHT22;5889;51.350;6.708;2022-08-04T05:19:56;24.40;90.60
11666;DHT22;5889;51.350;6.708;2022-08-04T05:22:28;24.40;90.50
11666;DHT22;5889;51.350;6.708;2022-08-04T05:25:02;24.60;90.60
11666;DHT22;5889;51.350;6.708;2022-08-04T05:27:34;24.60;90.50
11666;DHT22;5889;51.350;6.708;2022-08-04T05:30:04;24.80;90.50
11666;DHT22;5889;51.350;6.708;2022-08-04T05:32:37;24.80;90.40
11666;DHT22;5889;51.350;6.708;2022-08-04T05:35:09;24.80;90.30
11666;DHT22;5889;51.350;6.708;2022-08-04T05:37:38;25.00;90.40
11666;DHT22;5889;51.350;6.708;2022-08-04T05:40:07;25.00;90.40
11666;DHT22;5889;51.350;6.708;2022-08-04T05:42:37;25.20;90.30
11666;DHT22;5889;51.350;6.708;2022-08-04T05:45:07;25.20;90.20
11666;DHT22;5889;51.350;6.708;2022-08-04T05:47:36;25.20;90.30
11666;DHT22;5889;51.350;6.708;2022-08-04T05:50:05;25.30;90.30
11666;DHT22;5889;51.350;6.708;2022-08-04T05:52:34;25.40;90.40
11666;DHT22;5889;51.350;6.708;2022-08-04T05:55:03;25.40;90.40
11666;DHT22;5889;51.350;6.708;2022-08-04T05:57:30;25.40;90.40
11666;DHT22;5889;51.350;6.708;2022-08-04T06:00:00;25.40;90.50
11666;DHT22;5889;51.350;6.708;2022-08-04T06:02:29;25.50;90.60
11666;DHT22;5889;51.350;6.708;2022-08-04T06:04:59;25.50;90.60
11666;DHT22;5889;51.350;6.708;2022-08-04T06:07:27;25.50;90.80
11666;DHT22;5889;51.350;6.708;2022-08-04T06:09:54;25.60;90.50
11666;DHT22;5889;51.350;6.708;2022-08-04T06:12:24;25.60;90.40
11666;DHT22;5889;51.350;6.708;2022-08-04T06:14:54;25.70;90.30
11666;DHT22;5889;51.350;6.708;2022-08-04T06:17:23;25.70;90.00
11666;DHT22;5889;51.350;6.708;2022-08-04T06:19:52;25.80;89.60
11666;DHT22;5889;51.350;6.708;2022-08-04T06:22:22;25.90;89.20
11666;DHT22;5889;51.350;6.708;2022-08-04T06:24:50;26.00;88.90
11666;DHT22;5889;51.350;6.708;2022-08-04T06:27:20;26.10;88.50
11666;DHT22;5889;51.350;6.708;2022-08-04T06:29:49;26.30;88.30
11666;DHT22;5889;51.350;6.708;2022-08-04T06:32:16;26.50;87.60
11666;DHT22;5889;51.350;6.708;2022-08-04T06:34:54;26.60;87.10
11666;DHT22;5889;51.350;6.708;2022-08-04T06:37:23;26.80;86.60
11666;DHT22;5889;51.350;6.708;2022-08-04T06:39:51;26.90;86.30
11666;DHT22;5889;51.350;6.708;2022-08-04T06:42:21;27.00;85.80
11666;DHT22;5889;51.350;6.708;2022-08-04T06:44:53;27.10;85.40
11666;DHT22;5889;51.350;6.708;2022-08-04T06:47:22;27.20;84.70
11666;DHT22;5889;51.350;6.708;2022-08-04T06:49:51;27.40;84.60
11666;DHT22;5889;51.350;6.708;2022-08-04T06:52:19;27.50;84.00
11666;DHT22;5889;51.350;6.708;2022-08-04T06:54:49;27.60;83.80
11666;DHT22;5889;51.350;6.708;2022-08-04T06:57:19;27.80;83.70
11666;DHT22;5889;51.350;6.708;2022-08-04T06:59:50;27.90;83.20
11666;DHT22;5889;51.350;6.708;2022-08-04T07:02:22;28.10;82.50
11666;DHT22;5889;51.350;6.708;2022-08-04T07:04:49;28.20;82.10
11666;DHT22;5889;51.350;6.708;2022-08-04T07:07:17;28.30;81.50
11666;DHT22;5889;51.350;6.708;2022-08-04T07:09:44;28.30;81.20
11666;DHT22;5889;51.350;6.708;2022-08-04T07:12:13;28.40;81.00
11666;DHT22;5889;51.350;6.708;2022-08-04T07:14:40;28.50;80.70
11666;DHT22;5889;51.350;6.708;2022-08-04T07:17:08;28.70;80.50
11666;DHT22;5889;51.350;6.708;2022-08-04T07:19:36;28.80;79.70
11666;DHT22;5889;51.350;6.708;2022-08-04T07:22:04;28.90;79.50
11666;DHT22;5889;51.350;6.708;2022-08-04T07:24:33;29.00;79.10
11666;DHT22;5889;51.350;6.708;2022-08-04T07:27:01;29.10;78.70
11666;DHT22;5889;51.350;6.708;2022-08-04T07:29:30;29.20;78.80
11666;DHT22;5889;51.350;6.708;2022-08-04T07:31:59;29.30;78.80
11666;DHT22;5889;51.350;6.708;2022-08-04T07:34:26;29.40;78.60
11666;DHT22;5889;51.350;6.708;2022-08-04T07:36:55;29.50;78.20
11666;DHT22;5889;51.350;6.708;2022-08-04T07:39:25;29.60;77.90
11666;DHT22;5889;51.350;6.708;2022-08-04T07:41:53;29.80;77.60
11666;DHT22;5889;51.350;6.708;2022-08-04T07:44:20;29.80;77.00
11666;DHT22;5889;51.350;6.708;2022-08-04T07:46:48;29.90;76.70
11666;DHT22;5889;51.350;6.708;2022-08-04T07:49:15;29.80;77.70
11666;DHT22;5889;51.350;6.708;2022-08-04T07:51:43;29.80;77.50
11666;DHT22;5889;51.350;6.708;2022-08-04T07:54:11;30.00;77.10
11666;DHT22;5889;51.350;6.708;2022-08-04T07:56:40;30.10;76.90
11666;DHT22;5889;51.350;6.708;2022-08-04T07:59:08;30.20;76.70
11666;DHT22;5889;51.350;6.708;2022-08-04T08:01:36;30.40;76.40
11666;DHT22;5889;51.350;6.708;2022-08-04T08:04:06;30.40;75.80
11666;DHT22;5889;51.350;6.708;2022-08-04T08:06:35;30.50;76.00
11666;DHT22;5889;51.350;6.708;2022-08-04T08:09:06;30.70;75.90
11666;DHT22;5889;51.350;6.708;2022-08-04T08:11:34;30.80;75.10
11666;DHT22;5889;51.350;6.708;2022-08-04T08:14:01;31.00;75.20
11666;DHT22;5889;51.350;6.708;2022-08-04T08:16:28;31.20;75.00
11666;DHT22;5889;51.350;6.708;2022-08-04T08:18:55;31.40;74.10
11666;DHT22;5889;51.350;6.708;2022-08-04T08:21:23;31.60;73.90
11666;DHT22;5889;51.350;6.708;2022-08-04T08:23:51;31.70;73.10
11666;DHT22;5889;51.350;6.708;2022-08-04T08:26:18;31.70;73.10
11666;DHT22;5889;51.350;6.708;2022-08-04T08:28:45;31.90;73.20
11666;DHT22;5889;51.350;6.708;2022-08-04T08:31:12;32.00;72.40
11666;DHT22;5889;51.350;6.708;2022-08-04T08:33:39;32.10;72.80
11666;DHT22;5889;51.350;6.708;2022-08-04T08:36:10;32.10;72.50
11666;DHT22;5889;51.350;6.708;2022-08-04T08:38:48;32.40;72.10
11666;DHT22;5889;51.350;6.708;2022-08-04T08:42:01;32.50;71.70
11666;DHT22;5889;51.350;6.708;2022-08-04T08:44:51;32.50;71.50
11666;DHT22;5889;51.350;6.708;2022-08-04T08:47:34;32.60;71.60
11666;DHT22;5889;51.350;6.708;2022-08-04T08:50:41;32.80;71.10
11666;DHT22;5889;51.350;6.708;2022-08-04T08:53:24;32.80;69.80
11666;DHT22;5889;51.350;6.708;2022-08-04T08:56:07;33.00;69.90
11666;DHT22;5889;51.350;6.708;2022-08-04T08:59:00;33.00;70.20
11666;DHT22;5889;51.350;6.708;2022-08-04T09:01:50;32.90;70.40
11666;DHT22;5889;51.350;6.708;2022-08-04T09:04:42;33.00;70.50
11666;DHT22;5889;51.350;6.708;2022-08-04T09:07:30;33.00;69.80
11666;DHT22;5889;51.350;6.708;2022-08-04T09:10:13;33.00;70.00
11666;DHT22;5889;51.350;6.708;2022-08-04T09:12:50;32.90;70.00
11666;DHT22;5889;51.350;6.708;2022-08-04T09:15:26;33.10;70.00
11666;DHT22;5889;51.350;6.708;2022-08-04T09:18:01;33.20;69.40
11666;DHT22;5889;51.350;6.708;2022-08-04T09:20:30;33.20;69.50
11666;DHT22;5889;51.350;6.708;2022-08-04T09:23:07;33.10;69.70
11666;DHT22;5889;51.350;6.708;2022-08-04T09:25:45;33.10;69.00
11666;DHT22;5889;51.350;6.708;2022-08-04T09:28:19;33.30;68.80
11666;DHT22;5889;51.350;6.708;2022-08-04T09:30:54;33.60;68.60
11666;DHT22;5889;51.350;6.708;2022-08-04T09:33:29;34.00;68.30
11666;DHT22;5889;51.350;6.708;2022-08-04T09:36:00;34.20;67.50
11666;DHT22;5889;51.350;6.708;2022-08-04T09:38:32;34.30;66.50
11666;DHT22;5889;51.350;6.708;2022-08-04T09:41:07;34.20;66.00
11666;DHT22;5889;51.350;6.708;2022-08-04T09:43:52;34.30;66.60
11666;DHT22;5889;51.350;6.708;2022-08-04T09:46:27;34.40;66.00
11666;DHT22;5889;51.350;6.708;2022-08-04T09:48:58;34.40;65.90
11666;DHT22;5889;51.350;6.708;2022-08-04T09:51:39;34.50;65.60
11666;DHT22;5889;51.350;6.708;2022-08-04T09:54:26;34.60;65.80
11666;DHT22;5889;51.350;6.708;2022-08-04T09:56:59;34.80;66.30
11666;DHT22;5889;51.350;6.708;2022-08-04T09:59:36;35.00;66.10
11666;DHT22;5889;51.350;6.708;2022-08-04T10:02:06;35.30;65.20
11666;DHT22;5889;51.350;6.708;2022-08-04T10:04:35;35.30;64.90
11666;DHT22;5889;51.350;6.708;2022-08-04T10:10:16;35.00;65.00
11666;DHT22;5889;51.350;6.708;2022-08-04T10:13:08;34.80;65.20
11666;DHT22;5889;51.350;6.708;2022-08-04T10:15:47;34.90;65.20
11666;DHT22;5889;51.350;6.708;2022-08-04T10:18:27;34.90;65.70
11666;DHT22;5889;51.350;6.708;2022-08-04T10:21:07;34.90;65.20
11666;DHT22;5889;51.350;6.708;2022-08-04T10:23:46;35.10;65.60
11666;DHT22;5889;51.350;6.708;2022-08-04T10:26:32;35.20;64.90
11666;DHT22;5889;51.350;6.708;2022-08-04T10:29:04;35.30;64.40
11666;DHT22;5889;51.350;6.708;2022-08-04T10:31:37;35.00;65.10
11666;DHT22;5889;51.350;6.708;2022-08-04T10:34:09;34.70;65.30
11666;DHT22;5889;51.350;6.708;2022-08-04T10:36:55;34.40;65.70
11666;DHT22;5889;51.350;6.708;2022-08-04T10:39:28;34.40;66.10
11666;DHT22;5889;51.350;6.708;2022-08-04T10:42:05;34.40;66.10
11666;DHT22;5889;51.350;6.708;2022-08-04T10:44:43;34.60;65.70
11666;DHT22;5889;51.350;6.708;2022-08-04T10:47:20;34.70;64.10
11666;DHT22;5889;51.350;6.708;2022-08-04T10:49:53;35.00;63.40
11666;DHT22;5889;51.350;6.708;2022-08-04T10:52:26;35.20;64.00
11666;DHT22;5889;51.350;6.708;2022-08-04T10:55:02;35.20;63.60
11666;DHT22;5889;51.350;6.708;2022-08-04T10:57:34;34.70;63.90
11666;DHT22;5889;51.350;6.708;2022-08-04T11:00:05;34.60;63.90
11666;DHT22;5889;51.350;6.708;2022-08-04T11:02:40;34.80;63.60
11666;DHT22;5889;51.350;6.708;2022-08-04T11:05:20;35.00;63.30
11666;DHT22;5889;51.350;6.708;2022-08-04T11:07:52;35.10;63.70
11666;DHT22;5889;51.350;6.708;2022-08-04T11:10:22;35.30;63.50
11666;DHT22;5889;51.350;6.708;2022-08-04T11:12:55;35.10;65.20
11666;DHT22;5889;51.350;6.708;2022-08-04T11:15:26;34.80;64.00
11666;DHT22;5889;51.350;6.708;2022-08-04T11:18:00;34.30;64.70
11666;DHT22;5889;51.350;6.708;2022-08-04T11:20:35;33.80;65.70
11666;DHT22;5889;51.350;6.708;2022-08-04T11:23:06;33.50;66.00
11666;DHT22;5889;51.350;6.708;2022-08-04T11:25:40;33.40;66.20
11666;DHT22;5889;51.350;6.708;2022-08-04T11:28:12;33.30;66.50
11666;DHT22;5889;51.350;6.708;2022-08-04T11:30:45;33.40;65.40
11666;DHT22;5889;51.350;6.708;2022-08-04T11:33:20;33.40;64.90
11666;DHT22;5889;51.350;6.708;2022-08-04T11:35:56;33.40;64.40
11666;DHT22;5889;51.350;6.708;2022-08-04T11:38:27;33.10;65.60
11666;DHT22;5889;51.350;6.708;2022-08-04T11:40:59;33.10;65.80
11666;DHT22;5889;51.350;6.708;2022-08-04T11:43:31;33.30;66.30
11666;DHT22;5889;51.350;6.708;2022-08-04T11:46:05;33.40;67.00
11666;DHT22;5889;51.350;6.708;2022-08-04T11:48:36;33.20;67.20
11666;DHT22;5889;51.350;6.708;2022-08-04T11:51:05;33.20;67.60
11666;DHT22;5889;51.350;6.708;2022-08-04T11:53:37;33.10;68.00
11666;DHT22;5889;51.350;6.708;2022-08-04T11:56:06;33.00;68.50
11666;DHT22;5889;51.350;6.708;2022-08-04T11:58:34;32.80;69.20
11666;DHT22;5889;51.350;6.708;2022-08-04T12:01:07;32.70;69.40
11666;DHT22;5889;51.350;6.708;2022-08-04T12:03:45;32.20;69.60
11666;DHT22;5889;51.350;6.708;2022-08-04T12:06:19;31.90;70.20
11666;DHT22;5889;51.350;6.708;2022-08-04T12:08:57;31.50;70.60
11666;DHT22;5889;51.350;6.708;2022-08-04T12:11:37;31.30;70.80
11666;DHT22;5889;51.350;6.708;2022-08-04T12:14:14;31.20;72.20
11666;DHT22;5889;51.350;6.708;2022-08-04T12:16:47;31.00;72.40
11666;DHT22;5889;51.350;6.708;2022-08-04T12:19:25;30.80;73.10
11666;DHT22;5889;51.350;6.708;2022-08-04T12:21:57;30.80;73.40
11666;DHT22;5889;51.350;6.708;2022-08-04T12:24:32;30.70;73.40
11666;DHT22;5889;51.350;6.708;2022-08-04T12:27:05;30.70;73.20
11666;DHT22;5889;51.350;6.708;2022-08-04T12:29:33;30.90;73.00
11666;DHT22;5889;51.350;6.708;2022-08-04T12:32:08;31.00;71.70
11666;DHT22;5889;51.350;6.708;2022-08-04T12:34:42;31.00;73.30
11666;DHT22;5889;51.350;6.708;2022-08-04T12:37:17;31.10;74.10
11666;DHT22;5889;51.350;6.708;2022-08-04T12:39:47;31.10;74.70
11666;DHT22;5889;51.350;6.708;2022-08-04T12:42:21;31.00;76.60
11666;DHT22;5889;51.350;6.708;2022-08-04T12:44:50;31.10;77.60
11666;DHT22;5889;51.350;6.708;2022-08-04T12:47:22;31.20;76.50
11666;DHT22;5889;51.350;6.708;2022-08-04T12:49:53;31.10;76.70
11666;DHT22;5889;51.350;6.708;2022-08-04T12:52:21;31.00;77.30
11666;DHT22;5889;51.350;6.708;2022-08-04T12:54:52;30.90;77.50
11666;DHT22;5889;51.350;6.708;2022-08-04T12:57:20;31.10;77.70
11666;DHT22;5889;51.350;6.708;2022-08-04T12:59:48;31.20;76.40
11666;DHT22;5889;51.350;6.708;2022-08-04T13:02:23;31.30;76.00
11666;DHT22;5889;51.350;6.708;2022-08-04T13:04:53;31.40;76.50
11666;DHT22;5889;51.350;6.708;2022-08-04T13:07:23;31.60;76.20
11666;DHT22;5889;51.350;6.708;2022-08-04T13:09:51;31.80;75.70
11666;DHT22;5889;51.350;6.708;2022-08-04T13:12:24;31.80;74.90
11666;DHT22;5889;51.350;6.708;2022-08-04T13:14:57;31.80;72.00
11666;DHT22;5889;51.350;6.708;2022-08-04T13:17:25;31.70;72.80
11666;DHT22;5889;51.350;6.708;2022-08-04T13:19:53;31.60;75.10
11666;DHT22;5889;51.350;6.708;2022-08-04T13:22:24;31.60;73.80
11666;DHT22;5889;51.350;6.708;2022-08-04T13:24:52;31.70;73.30
11666;DHT22;5889;51.350;6.708;2022-08-04T13:27:20;31.60;73.80
11666;DHT22;5889;51.350;6.708;2022-08-04T13:29:49;31.50;73.40
11666;DHT22;5889;51.350;6.708;2022-08-04T13:32:19;31.40;75.00
11666;DHT22;5889;51.350;6.708;2022-08-04T13:34:48;31.20;74.40
11666;DHT22;5889;51.350;6.708;2022-08-04T13:37:18;31.10;75.10
11666;DHT22;5889;51.350;6.708;2022-08-04T13:39:45;31.10;74.40
11666;DHT22;5889;51.350;6.708;2022-08-04T13:42:14;31.00;73.90
11666;DHT22;5889;51.350;6.708;2022-08-04T13:44:46;31.10;73.70
11666;DHT22;5889;51.350;6.708;2022-08-04T13:47:18;31.20;72.00
11666;DHT22;5889;51.350;6.708;2022-08-04T13:50:14;31.30;71.60
11666;DHT22;5889;51.350;6.708;2022-08-04T13:52:43;31.60;71.30
11666;DHT22;5889;51.350;6.708;2022-08-04T13:55:18;31.80;70.90
11666;DHT22;5889;51.350;6.708;2022-08-04T13:57:49;31.90;70.70
11666;DHT22;5889;51.350;6.708;2022-08-04T14:00:16;31.80;70.90
11666;DHT22;5889;51.350;6.708;2022-08-04T14:02:48;31.70;71.60
11666;DHT22;5889;51.350;6.708;2022-08-04T14:05:20;31.60;71.50
11666;DHT22;5889;51.350;6.708;2022-08-04T14:07:53;31.40;72.10
11666;DHT22;5889;51.350;6.708;2022-08-04T14:10:21;31.20;73.00
11666;DHT22;5889;51.350;6.708;2022-08-04T14:12:50;31.00;72.80
11666;DHT22;5889;51.350;6.708;2022-08-04T14:15:36;30.90;73.20
11666;DHT22;5889;51.350;6.708;2022-08-04T14:18:17;30.90;73.40
11666;DHT22;5889;51.350;6.708;2022-08-04T14:21:00;30.70;74.30
11666;DHT22;5889;51.350;6.708;2022-08-04T14:23:38;30.50;73.70
11666;DHT22;5889;51.350;6.708;2022-08-04T14:26:17;30.50;74.60
11666;DHT22;5889;51.350;6.708;2022-08-04T14:28:44;30.60;74.50
11666;DHT22;5889;51.350;6.708;2022-08-04T14:31:13;30.70;74.70
11666;DHT22;5889;51.350;6.708;2022-08-04T14:33:44;30.70;74.10
11666;DHT22;5889;51.350;6.708;2022-08-04T14:36:12;30.80;74.40
11666;DHT22;5889;51.350;6.708;2022-08-04T14:38:44;30.80;74.30
11666;DHT22;5889;51.350;6.708;2022-08-04T14:41:12;30.80;74.20
11666;DHT22;5889;51.350;6.708;2022-08-04T14:43:46;30.60;75.20
11666;DHT22;5889;51.350;6.708;2022-08-04T14:46:14;30.60;75.10
11666;DHT22;5889;51.350;6.708;2022-08-04T14:49:03;30.50;75.80
11666;DHT22;5889;51.350;6.708;2022-08-04T14:51:38;30.50;76.20
11666;DHT22;5889;51.350;6.708;2022-08-04T14:54:08;30.50;76.20
11666;DHT22;5889;51.350;6.708;2022-08-04T14:56:36;30.50;76.80
11666;DHT22;5889;51.350;6.708;2022-08-04T14:59:06;30.50;77.40
11666;DHT22;5889;51.350;6.708;2022-08-04T15:01:34;30.50;77.40
11666;DHT22;5889;51.350;6.708;2022-08-04T15:04:02;30.40;76.90
11666;DHT22;5889;51.350;6.708;2022-08-04T15:06:30;30.30;77.50
11666;DHT22;5889;51.350;6.708;2022-08-04T15:08:59;30.20;77.40
11666;DHT22;5889;51.350;6.708;2022-08-04T15:11:28;30.10;77.70
11666;DHT22;5889;51.350;6.708;2022-08-04T15:13:56;30.10;78.00
11666;DHT22;5889;51.350;6.708;2022-08-04T15:16:25;30.00;77.70
11666;DHT22;5889;51.350;6.708;2022-08-04T15:18:53;29.80;77.90
11666;DHT22;5889;51.350;6.708;2022-08-04T15:21:20;29.80;78.50
11666;DHT22;5889;51.350;6.708;2022-08-04T15:23:48;29.70;78.90
11666;DHT22;5889;51.350;6.708;2022-08-04T15:26:20;29.60;80.00
11666;DHT22;5889;51.350;6.708;2022-08-04T15:28:52;29.60;78.90
11666;DHT22;5889;51.350;6.708;2022-08-04T15:31:21;29.60;78.80
11666;DHT22;5889;51.350;6.708;2022-08-04T15:33:48;29.60;78.60
11666;DHT22;5889;51.350;6.708;2022-08-04T15:36:21;29.70;78.40
11666;DHT22;5889;51.350;6.708;2022-08-04T15:38:58;29.70;78.00
11666;DHT22;5889;51.350;6.708;2022-08-04T15:41:34;29.80;78.60
11666;DHT22;5889;51.350;6.708;2022-08-04T15:44:34;29.60;78.10
11666;DHT22;5889;51.350;6.708;2022-08-04T15:47:10;29.50;79.30
11666;DHT22;5889;51.350;6.708;2022-08-04T15:49:37;29.30;80.40
11666;DHT22;5889;51.350;6.708;2022-08-04T15:52:07;29.20;80.90
11666;DHT22;5889;51.350;6.708;2022-08-04T15:54:34;28.90;81.60
11666;DHT22;5889;51.350;6.708;2022-08-04T15:57:03;28.80;81.70
11666;DHT22;5889;51.350;6.708;2022-08-04T15:59:57;28.60;82.20
11666;DHT22;5889;51.350;6.708;2022-08-04T16:02:41;28.40;83.00
11666;DHT22;5889;51.350;6.708;2022-08-04T16:05:33;28.30;83.70
11666;DHT22;5889;51.350;6.708;2022-08-04T16:08:12;28.30;84.30
11666;DHT22;5889;51.350;6.708;2022-08-04T16:10:41;28.30;84.20
11666;DHT22;5889;51.350;6.708;2022-08-04T16:13:10;28.40;84.30
11666;DHT22;5889;51.350;6.708;2022-08-04T16:15:42;28.60;83.80
11666;DHT22;5889;51.350;6.708;2022-08-04T16:18:11;28.70;83.30
11666;DHT22;5889;51.350;6.708;2022-08-04T16:20:40;28.80;83.20
11666;DHT22;5889;51.350;6.708;2022-08-04T16:23:33;28.90;82.80
11666;DHT22;5889;51.350;6.708;2022-08-04T16:26:04;28.80;83.20
11666;DHT22;5889;51.350;6.708;2022-08-04T16:28:35;28.70;84.20
11666;DHT22;5889;51.350;6.708;2022-08-04T16:31:05;28.60;84.80
11666;DHT22;5889;51.350;6.708;2022-08-04T16:33:33;28.70;85.50
11666;DHT22;5889;51.350;6.708;2022-08-04T16:36:00;28.60;86.00
11666;DHT22;5889;51.350;6.708;2022-08-04T16:38:27;28.60;86.20
11666;DHT22;5889;51.350;6.708;2022-08-04T16:40:55;28.60;86.20
11666;DHT22;5889;51.350;6.708;2022-08-04T16:43:26;28.60;86.50
11666;DHT22;5889;51.350;6.708;2022-08-04T16:45:55;28.70;86.20
11666;DHT22;5889;51.350;6.708;2022-08-04T16:48:26;28.90;84.90
11666;DHT22;5889;51.350;6.708;2022-08-04T16:50:59;29.10;82.80
11666;DHT22;5889;51.350;6.708;2022-08-04T16:53:31;29.10;82.10
11666;DHT22;5889;51.350;6.708;2022-08-04T16:55:59;29.00;81.60
11666;DHT22;5889;51.350;6.708;2022-08-04T16:58:28;29.00;81.80
11666;DHT22;5889;51.350;6.708;2022-08-04T17:00:56;28.90;82.30
11666;DHT22;5889;51.350;6.708;2022-08-04T17:03:24;28.80;82.30
11666;DHT22;5889;51.350;6.708;2022-08-04T17:06:07;28.60;84.20
11666;DHT22;5889;51.350;6.708;2022-08-04T17:08:34;28.40;84.60
11666;DHT22;5889;51.350;6.708;2022-08-04T17:11:03;28.30;84.20